sensor_id;sensor_type;location;lat;lon;timestamp;pressure;altitude;pressure_sealevel;temperature;humidity
73633;BME280;61927;50.080;14.418;2024-01-15T00:01:29;97820.41;;;1.01;67.38
73633;BME280;61927;50.080;14.418;2024-01-15T00:03:55;97836.75;;;1.04;67.95
73633;BME280;61927;50.080;14.418;2024-01-15T00:06:20;97826.69;;;0.96;67.94
73633;BME280;61927;50.080;14.418;2024-01-15T00:08:46;97820.78;;;0.93;67.91
73633;BME280;61927;50.080;14.418;2024-01-15T00:11:12;97816.53;;;0.73;67.89
73633;BME280;61927;50.080;14.418;2024-01-15T00:13:37;97815.53;;;0.76;68.87
73633;BME280;61927;50.080;14.418;2024-01-15T00:16:06;97794.47;;;0.61;68.82
73633;BME280;61927;50.080;14.418;2024-01-15T00:18:31;97795.53;;;0.57;69.23
73633;BME280;61927;50.080;14.418;2024-01-15T00:20:57;97782.59;;;0.37;69.38
73633;BME280;61927;50.080;14.418;2024-01-15T00:23:23;97784.00;;;0.44;69.32
73633;BME280;61927;50.080;14.418;2024-01-15T00:25:50;97775.72;;;0.53;68.59
73633;BME280;61927;50.080;14.418;2024-01-15T00:28:16;97793.84;;;0.56;68.82
73633;BME280;61927;50.080;14.418;2024-01-15T00:30:42;97774.19;;;0.49;68.84
73633;BME280;61927;50.080;14.418;2024-01-15T00:33:08;97776.56;;;0.54;68.21
73633;BME280;61927;50.080;14.418;2024-01-15T00:35:34;97777.28;;;0.57;68.22
73633;BME280;61927;50.080;14.418;2024-01-15T00:37:59;97785.31;;;0.53;68.67
73633;BME280;61927;50.080;14.418;2024-01-15T00:40:25;97782.50;;;0.57;67.99
73633;BME280;61927;50.080;14.418;2024-01-15T00:42:51;97768.44;;;0.60;67.85
73633;BME280;61927;50.080;14.418;2024-01-15T00:45:16;97772.91;;;0.58;68.21
73633;BME280;61927;50.080;14.418;2024-01-15T00:47:42;97760.84;;;0.55;68.23
73633;BME280;61927;50.080;14.418;2024-01-15T00:50:08;97760.78;;;0.57;68.16
73633;BME280;61927;50.080;14.418;2024-01-15T00:52:33;97758.84;;;0.60;67.81
73633;BME280;61927;50.080;14.418;2024-01-15T00:54:59;97753.63;;;0.60;67.78
73633;BME280;61927;50.080;14.418;2024-01-15T00:57:25;97753.72;;;0.59;67.79
73633;BME280;61927;50.080;14.418;2024-01-15T00:59:51;97758.00;;;0.60;67.44
73633;BME280;61927;50.080;14.418;2024-01-15T01:02:16;97757.94;;;0.61;67.27
73633;BME280;61927;50.080;14.418;2024-01-15T01:04:42;97759.56;;;0.64;67.33
73633;BME280;61927;50.080;14.418;2024-01-15T01:07:07;97751.09;;;0.59;67.62
73633;BME280;61927;50.080;14.418;2024-01-15T01:09:33;97746.34;;;0.67;67.47
73633;BME280;61927;50.080;14.418;2024-01-15T01:11:58;97756.56;;;0.72;67.42
73633;BME280;61927;50.080;14.418;2024-01-15T01:14:24;97759.03;;;0.75;67.39
73633;BME280;61927;50.080;14.418;2024-01-15T01:16:50;97746.81;;;0.58;67.47
73633;BME280;61927;50.080;14.418;2024-01-15T01:19:15;97748.50;;;0.59;67.12
73633;BME280;61927;50.080;14.418;2024-01-15T01:21:41;97748.41;;;0.60;67.20
73633;BME280;61927;50.080;14.418;2024-01-15T01:24:07;97747.50;;;0.61;66.83
73633;BME280;61927;50.080;14.418;2024-01-15T01:26:32;97755.19;;;0.64;66.70
73633;BME280;61927;50.080;14.418;2024-01-15T01:28:58;97740.72;;;0.57;67.19
73633;BME280;61927;50.080;14.418;2024-01-15T01:31:24;97737.22;;;0.58;67.40
73633;BME280;61927;50.080;14.418;2024-01-15T01:33:50;97735.22;;;0.63;66.84
73633;BME280;61927;50.080;14.418;2024-01-15T01:36:15;97739.75;;;0.60;66.58
73633;BME280;61927;50.080;14.418;2024-01-15T01:38:41;97734.44;;;0.61;66.68
73633;BME280;61927;50.080;14.418;2024-01-15T01:41:06;97725.78;;;0.61;66.13
73633;BME280;61927;50.080;14.418;2024-01-15T01:43:33;97716.31;;;0.58;66.79
73633;BME280;61927;50.080;14.418;2024-01-15T01:46:00;97711.09;;;0.58;66.94
73633;BME280;61927;50.080;14.418;2024-01-15T01:48:26;97719.94;;;0.56;66.26
73633;BME280;61927;50.080;14.418;2024-01-15T01:50:58;97716.63;;;0.52;66.21
73633;BME280;61927;50.080;14.418;2024-01-15T01:53:26;97701.59;;;0.57;66.69
73633;BME280;61927;50.080;14.418;2024-01-15T01:55:52;97702.50;;;0.56;66.18
73633;BME280;61927;50.080;14.418;2024-01-15T01:58:19;97701.50;;;0.59;66.69
73633;BME280;61927;50.080;14.418;2024-01-15T02:00:46;97706.44;;;0.65;65.88
73633;BME280;61927;50.080;14.418;2024-01-15T02:03:12;97704.81;;;0.45;66.82
73633;BME280;61927;50.080;14.418;2024-01-15T02:05:39;97703.81;;;0.65;65.83
73633;BME280;61927;50.080;14.418;2024-01-15T02:08:05;97712.34;;;0.51;65.93
73633;BME280;61927;50.080;14.418;2024-01-15T02:10:31;97721.06;;;0.50;66.19
73633;BME280;61927;50.080;14.418;2024-01-15T02:12:57;97736.66;;;0.16;66.84
73633;BME280;61927;50.080;14.418;2024-01-15T02:15:22;97738.66;;;0.11;67.20
73633;BME280;61927;50.080;14.418;2024-01-15T02:17:58;97727.13;;;0.34;66.82
73633;BME280;61927;50.080;14.418;2024-01-15T02:20:24;97723.97;;;0.44;67.11
73633;BME280;61927;50.080;14.418;2024-01-15T02:22:50;97726.91;;;0.55;66.01
73633;BME280;61927;50.080;14.418;2024-01-15T02:25:15;97725.44;;;0.50;66.79
73633;BME280;61927;50.080;14.418;2024-01-15T02:27:42;97723.63;;;0.69;65.96
73633;BME280;61927;50.080;14.418;2024-01-15T02:30:10;97719.25;;;0.70;65.66
73633;BME280;61927;50.080;14.418;2024-01-15T02:32:36;97721.78;;;0.71;65.24
73633;BME280;61927;50.080;14.418;2024-01-15T02:35:02;97717.25;;;0.75;65.18
73633;BME280;61927;50.080;14.418;2024-01-15T02:37:27;97703.34;;;0.74;65.19
73633;BME280;61927;50.080;14.418;2024-01-15T02:39:53;97695.97;;;0.48;65.41
73633;BME280;61927;50.080;14.418;2024-01-15T02:42:19;97693.91;;;0.54;65.59
73633;BME280;61927;50.080;14.418;2024-01-15T02:44:44;97695.91;;;0.49;65.88
73633;BME280;61927;50.080;14.418;2024-01-15T02:47:10;97697.38;;;0.55;65.58
73633;BME280;61927;50.080;14.418;2024-01-15T02:49:35;97705.88;;;0.58;65.26
73633;BME280;61927;50.080;14.418;2024-01-15T02:52:01;97685.09;;;0.57;64.28
73633;BME280;61927;50.080;14.418;2024-01-15T02:54:26;97697.97;;;0.60;65.10
73633;BME280;61927;50.080;14.418;2024-01-15T02:56:52;97691.22;;;0.56;65.22
73633;BME280;61927;50.080;14.418;2024-01-15T02:59:17;97684.09;;;0.59;65.03
73633;BME280;61927;50.080;14.418;2024-01-15T03:01:43;97679.09;;;0.55;65.46
73633;BME280;61927;50.080;14.418;2024-01-15T03:04:08;97688.06;;;0.32;65.42
73633;BME280;61927;50.080;14.418;2024-01-15T03:06:34;97684.84;;;0.44;65.92
73633;BME280;61927;50.080;14.418;2024-01-15T03:09:00;97689.53;;;0.38;65.80
73633;BME280;61927;50.080;14.418;2024-01-15T03:11:25;97688.53;;;0.40;65.66
73633;BME280;61927;50.080;14.418;2024-01-15T03:13:51;97684.09;;;0.42;65.60
73633;BME280;61927;50.080;14.418;2024-01-15T03:16:17;97688.97;;;0.31;66.14
73633;BME280;61927;50.080;14.418;2024-01-15T03:18:45;97663.50;;;0.36;65.36
73633;BME280;61927;50.080;14.418;2024-01-15T03:21:10;97671.19;;;0.39;65.68
73633;BME280;61927;50.080;14.418;2024-01-15T03:23:36;97657.53;;;0.34;65.63
73633;BME280;61927;50.080;14.418;2024-01-15T03:26:01;97648.69;;;0.37;65.48
73633;BME280;61927;50.080;14.418;2024-01-15T03:28:27;97626.44;;;0.29;65.05
73633;BME280;61927;50.080;14.418;2024-01-15T03:30:53;97630.75;;;0.30;65.81
73633;BME280;61927;50.080;14.418;2024-01-15T03:33:18;97621.84;;;0.17;65.29
73633;BME280;61927;50.080;14.418;2024-01-15T03:35:44;97617.09;;;0.25;65.16
73633;BME280;61927;50.080;14.418;2024-01-15T03:38:09;97620.63;;;0.24;65.44
73633;BME280;61927;50.080;14.418;2024-01-15T03:40:35;97623.06;;;0.27;65.03
73633;BME280;61927;50.080;14.418;2024-01-15T03:43:00;97621.75;;;0.19;65.40
73633;BME280;61927;50.080;14.418;2024-01-15T03:45:26;97626.97;;;0.19;64.71
73633;BME280;61927;50.080;14.418;2024-01-15T03:47:51;97641.84;;;-0.01;65.36
73633;BME280;61927;50.080;14.418;2024-01-15T03:50:17;97639.59;;;-0.08;66.13
73633;BME280;61927;50.080;14.418;2024-01-15T03:52:42;97633.38;;;-0.06;65.71
73633;BME280;61927;50.080;14.418;2024-01-15T03:55:08;97653.44;;;0.11;64.61
73633;BME280;61927;50.080;14.418;2024-01-15T03:57:33;97682.97;;;0.12;64.93
73633;BME280;61927;50.080;14.418;2024-01-15T03:59:59;97684.00;;;-0.10;65.40
73633;BME280;61927;50.080;14.418;2024-01-15T04:02:25;97678.78;;;-0.10;65.49
73633;BME280;61927;50.080;14.418;2024-01-15T04:04:50;97676.72;;;-0.03;65.20
73633;BME280;61927;50.080;14.418;2024-01-15T04:07:16;97689.13;;;-0.08;65.46
73633;BME280;61927;50.080;14.418;2024-01-15T04:09:41;97679.13;;;-0.17;65.48
73633;BME280;61927;50.080;14.418;2024-01-15T04:12:07;97689.06;;;-0.44;66.06
73633;BME280;61927;50.080;14.418;2024-01-15T04:14:33;97695.63;;;-0.36;66.27
73633;BME280;61927;50.080;14.418;2024-01-15T04:16:58;97685.34;;;-0.20;65.50
73633;BME280;61927;50.080;14.418;2024-01-15T04:19:24;97685.41;;;-0.21;65.79
73633;BME280;61927;50.080;14.418;2024-01-15T04:21:49;97689.34;;;-0.13;65.34
73633;BME280;61927;50.080;14.418;2024-01-15T04:24:15;97693.59;;;-0.29;65.77
73633;BME280;61927;50.080;14.418;2024-01-15T04:26:43;97706.63;;;-0.29;65.45
73633;BME280;61927;50.080;14.418;2024-01-15T04:29:09;97695.13;;;-0.44;66.08
73633;BME280;61927;50.080;14.418;2024-01-15T04:31:34;97691.75;;;-0.27;65.52
73633;BME280;61927;50.080;14.418;2024-01-15T04:34:00;97679.84;;;-0.14;65.52
73633;BME280;61927;50.080;14.418;2024-01-15T04:36:25;97669.81;;;-0.04;65.76
73633;BME280;61927;50.080;14.418;2024-01-15T04:38:51;97659.97;;;-0.16;65.15
73633;BME280;61927;50.080;14.418;2024-01-15T04:41:16;97665.13;;;-0.15;66.16
73633;BME280;61927;50.080;14.418;2024-01-15T04:43:42;97681.88;;;-0.20;65.71
73633;BME280;61927;50.080;14.418;2024-01-15T04:46:08;97669.47;;;-0.15;65.42
73633;BME280;61927;50.080;14.418;2024-01-15T04:48:34;97674.78;;;-0.17;65.64
73633;BME280;61927;50.080;14.418;2024-01-15T04:50:59;97678.06;;;-0.13;65.28
73633;BME280;61927;50.080;14.418;2024-01-15T04:53:25;97676.09;;;-0.08;65.18
73633;BME280;61927;50.080;14.418;2024-01-15T04:55:51;97684.84;;;-0.28;65.44
73633;BME280;61927;50.080;14.418;2024-01-15T04:58:17;97683.31;;;-0.32;66.10
73633;BME280;61927;50.080;14.418;2024-01-15T05:00:42;97674.56;;;-0.31;65.49
73633;BME280;61927;50.080;14.418;2024-01-15T05:03:08;97674.56;;;-0.12;65.95
73633;BME280;61927;50.080;14.418;2024-01-15T05:05:33;97677.94;;;-0.29;65.82
73633;BME280;61927;50.080;14.418;2024-01-15T05:07:59;97665.53;;;-0.24;65.71
73633;BME280;61927;50.080;14.418;2024-01-15T05:10:25;97673.16;;;-0.38;66.12
73633;BME280;61927;50.080;14.418;2024-01-15T05:12:50;97671.91;;;-0.48;66.60
73633;BME280;61927;50.080;14.418;2024-01-15T05:15:16;97690.00;;;-0.45;65.74
73633;BME280;61927;50.080;14.418;2024-01-15T05:17:41;97686.03;;;-0.54;66.96
73633;BME280;61927;50.080;14.418;2024-01-15T05:20:07;97687.88;;;-0.56;67.04
73633;BME280;61927;50.080;14.418;2024-01-15T05:22:33;97690.78;;;-0.43;66.49
73633;BME280;61927;50.080;14.418;2024-01-15T05:24:58;97689.72;;;-0.39;66.43
73633;BME280;61927;50.080;14.418;2024-01-15T05:27:24;97692.53;;;-0.44;66.29
73633;BME280;61927;50.080;14.418;2024-01-15T05:29:50;97703.31;;;-0.32;66.33
73633;BME280;61927;50.080;14.418;2024-01-15T05:32:15;97713.16;;;-0.39;65.84
73633;BME280;61927;50.080;14.418;2024-01-15T05:34:41;97714.66;;;-0.34;65.36
73633;BME280;61927;50.080;14.418;2024-01-15T05:37:06;97723.16;;;-0.30;66.05
73633;BME280;61927;50.080;14.418;2024-01-15T05:39:32;97716.31;;;-0.14;65.74
73633;BME280;61927;50.080;14.418;2024-01-15T05:41:58;97724.56;;;-0.23;65.48
73633;BME280;61927;50.080;14.418;2024-01-15T05:44:24;97728.59;;;-0.16;65.21
73633;BME280;61927;50.080;14.418;2024-01-15T05:46:49;97730.91;;;-0.28;65.21
73633;BME280;61927;50.080;14.418;2024-01-15T05:49:15;97733.22;;;-0.41;65.65
73633;BME280;61927;50.080;14.418;2024-01-15T05:51:40;97734.28;;;-0.45;66.28
73633;BME280;61927;50.080;14.418;2024-01-15T05:54:06;97735.56;;;-0.35;65.32
73633;BME280;61927;50.080;14.418;2024-01-15T05:56:31;97728.03;;;-0.22;64.99
73633;BME280;61927;50.080;14.418;2024-01-15T05:58:57;97724.28;;;-0.36;65.67
73633;BME280;61927;50.080;14.418;2024-01-15T06:01:22;97725.06;;;-0.15;65.27
73633;BME280;61927;50.080;14.418;2024-01-15T06:03:48;97722.81;;;-0.41;65.35
73633;BME280;61927;50.080;14.418;2024-01-15T06:06:13;97727.03;;;-0.20;65.02
73633;BME280;61927;50.080;14.418;2024-01-15T06:08:39;97713.03;;;-0.17;64.95
73633;BME280;61927;50.080;14.418;2024-01-15T06:11:06;97709.00;;;-0.06;64.84
73633;BME280;61927;50.080;14.418;2024-01-15T06:13:32;97703.50;;;-0.18;64.92
73633;BME280;61927;50.080;14.418;2024-01-15T06:15:57;97698.31;;;-0.18;64.44
73633;BME280;61927;50.080;14.418;2024-01-15T06:18:23;97700.50;;;-0.28;64.62
73633;BME280;61927;50.080;14.418;2024-01-15T06:20:49;97703.50;;;-0.37;64.88
73633;BME280;61927;50.080;14.418;2024-01-15T06:23:14;97703.22;;;-0.50;65.62
73633;BME280;61927;50.080;14.418;2024-01-15T06:25:40;97708.84;;;-0.59;65.57
73633;BME280;61927;50.080;14.418;2024-01-15T06:28:05;97701.47;;;-0.68;66.46
73633;BME280;61927;50.080;14.418;2024-01-15T06:30:31;97705.53;;;-0.62;65.80
73633;BME280;61927;50.080;14.418;2024-01-15T06:32:57;97703.22;;;-0.69;66.40
73633;BME280;61927;50.080;14.418;2024-01-15T06:35:22;97716.75;;;-0.60;66.47
73633;BME280;61927;50.080;14.418;2024-01-15T06:37:48;97704.22;;;-0.52;65.98
73633;BME280;61927;50.080;14.418;2024-01-15T06:40:13;97709.19;;;-0.67;66.87
73633;BME280;61927;50.080;14.418;2024-01-15T06:42:40;97711.56;;;-0.81;67.17
73633;BME280;61927;50.080;14.418;2024-01-15T06:45:06;97728.94;;;-0.81;66.79
73633;BME280;61927;50.080;14.418;2024-01-15T06:47:32;97726.59;;;-0.67;67.05
73633;BME280;61927;50.080;14.418;2024-01-15T06:49:57;97732.78;;;-0.70;66.77
73633;BME280;61927;50.080;14.418;2024-01-15T06:52:24;97739.06;;;-0.94;67.42
73633;BME280;61927;50.080;14.418;2024-01-15T06:54:49;97739.06;;;-0.94;66.67
73633;BME280;61927;50.080;14.418;2024-01-15T06:57:15;97744.13;;;-0.91;67.54
73633;BME280;61927;50.080;14.418;2024-01-15T06:59:40;97760.78;;;-0.75;66.79
73633;BME280;61927;50.080;14.418;2024-01-15T07:02:06;97753.81;;;-0.94;67.32
73633;BME280;61927;50.080;14.418;2024-01-15T07:04:31;97758.00;;;-0.90;67.56
73633;BME280;61927;50.080;14.418;2024-01-15T07:06:57;97752.00;;;-0.92;67.01
73633;BME280;61927;50.080;14.418;2024-01-15T07:09:23;97761.69;;;-0.76;66.98
73633;BME280;61927;50.080;14.418;2024-01-15T07:11:48;97753.03;;;-0.76;66.99
73633;BME280;61927;50.080;14.418;2024-01-15T07:14:14;97769.78;;;-0.82;66.58
73633;BME280;61927;50.080;14.418;2024-01-15T07:16:40;97765.53;;;-0.84;67.60
73633;BME280;61927;50.080;14.418;2024-01-15T07:19:05;97770.94;;;-0.69;67.19
73633;BME280;61927;50.080;14.418;2024-01-15T07:21:31;97773.53;;;-0.69;66.70
73633;BME280;61927;50.080;14.418;2024-01-15T07:23:57;97779.13;;;-0.78;67.64
73633;BME280;61927;50.080;14.418;2024-01-15T07:26:23;97777.97;;;-0.91;67.73
73633;BME280;61927;50.080;14.418;2024-01-15T07:28:49;97788.53;;;-0.94;67.94
73633;BME280;61927;50.080;14.418;2024-01-15T07:31:18;97789.03;;;-0.86;67.80
73633;BME280;61927;50.080;14.418;2024-01-15T07:33:43;97795.03;;;-0.63;67.04
73633;BME280;61927;50.080;14.418;2024-01-15T07:36:09;97795.75;;;-0.80;67.22
73633;BME280;61927;50.080;14.418;2024-01-15T07:38:34;97797.38;;;-0.98;68.17
73633;BME280;61927;50.080;14.418;2024-01-15T07:41:00;97803.75;;;-0.85;67.67
73633;BME280;61927;50.080;14.418;2024-01-15T07:43:26;97793.91;;;-0.78;67.31
73633;BME280;61927;50.080;14.418;2024-01-15T07:45:53;97792.81;;;-0.73;67.16
73633;BME280;61927;50.080;14.418;2024-01-15T07:48:19;97788.91;;;-0.62;66.66
73633;BME280;61927;50.080;14.418;2024-01-15T07:50:45;97787.13;;;-0.62;66.50
73633;BME280;61927;50.080;14.418;2024-01-15T07:53:12;97786.81;;;-0.54;66.23
73633;BME280;61927;50.080;14.418;2024-01-15T07:55:38;97796.44;;;-0.56;66.41
73633;BME280;61927;50.080;14.418;2024-01-15T07:58:04;97785.81;;;-0.52;66.32
73633;BME280;61927;50.080;14.418;2024-01-15T08:00:30;97779.94;;;-0.37;65.51
73633;BME280;61927;50.080;14.418;2024-01-15T08:02:55;97780.03;;;-0.58;65.58
73633;BME280;61927;50.080;14.418;2024-01-15T08:05:21;97781.31;;;-0.48;65.47
73633;BME280;61927;50.080;14.418;2024-01-15T08:07:47;97777.47;;;-0.40;65.23
73633;BME280;61927;50.080;14.418;2024-01-15T08:10:13;97771.88;;;-0.51;65.48
73633;BME280;61927;50.080;14.418;2024-01-15T08:12:39;97779.78;;;-0.34;64.70
73633;BME280;61927;50.080;14.418;2024-01-15T08:15:05;97778.91;;;-0.53;64.95
73633;BME280;61927;50.080;14.418;2024-01-15T08:17:31;97775.44;;;-0.33;64.42
73633;BME280;61927;50.080;14.418;2024-01-15T08:19:57;97780.72;;;-0.35;64.81
73633;BME280;61927;50.080;14.418;2024-01-15T08:22:24;97791.91;;;-0.32;64.84
73633;BME280;61927;50.080;14.418;2024-01-15T08:24:50;97784.31;;;-0.37;64.97
73633;BME280;61927;50.080;14.418;2024-01-15T08:27:15;97783.03;;;-0.28;64.67
73633;BME280;61927;50.080;14.418;2024-01-15T08:29:41;97759.16;;;-0.01;63.96
73633;BME280;61927;50.080;14.418;2024-01-15T08:32:06;97762.25;;;0.08;64.16
73633;BME280;61927;50.080;14.418;2024-01-15T08:34:32;97763.53;;;-0.01;63.94
73633;BME280;61927;50.080;14.418;2024-01-15T08:36:58;97765.72;;;-0.11;64.63
73633;BME280;61927;50.080;14.418;2024-01-15T08:39:24;97749.38;;;0.05;63.73
73633;BME280;61927;50.080;14.418;2024-01-15T08:41:49;97744.38;;;0.00;63.08
73633;BME280;61927;50.080;14.418;2024-01-15T08:44:15;97742.31;;;0.07;62.76
73633;BME280;61927;50.080;14.418;2024-01-15T08:46:40;97740.97;;;0.17;62.72
73633;BME280;61927;50.080;14.418;2024-01-15T08:49:06;97737.81;;;-0.09;63.23
73633;BME280;61927;50.080;14.418;2024-01-15T08:51:31;97736.81;;;0.13;62.39
73633;BME280;61927;50.080;14.418;2024-01-15T08:53:57;97756.91;;;0.11;63.18
73633;BME280;61927;50.080;14.418;2024-01-15T08:56:23;97745.56;;;0.12;62.43
73633;BME280;61927;50.080;14.418;2024-01-15T08:58:49;97739.91;;;0.21;62.59
73633;BME280;61927;50.080;14.418;2024-01-15T09:01:15;97745.13;;;0.21;62.51
73633;BME280;61927;50.080;14.418;2024-01-15T09:03:41;97739.19;;;0.17;62.21
73633;BME280;61927;50.080;14.418;2024-01-15T09:06:10;97744.78;;;0.10;62.82
73633;BME280;61927;50.080;14.418;2024-01-15T09:08:36;97746.69;;;0.06;62.58
73633;BME280;61927;50.080;14.418;2024-01-15T09:11:02;97755.88;;;0.32;62.35
73633;BME280;61927;50.080;14.418;2024-01-15T09:13:29;97750.50;;;-0.01;62.31
73633;BME280;61927;50.080;14.418;2024-01-15T09:15:54;97748.34;;;0.26;61.50
73633;BME280;61927;50.080;14.418;2024-01-15T09:18:20;97757.25;;;0.22;62.10
73633;BME280;61927;50.080;14.418;2024-01-15T09:20:46;97751.44;;;0.34;61.54
73633;BME280;61927;50.080;14.418;2024-01-15T09:23:12;97748.69;;;0.37;61.25
73633;BME280;61927;50.080;14.418;2024-01-15T09:25:37;97749.69;;;0.35;60.77
73633;BME280;61927;50.080;14.418;2024-01-15T09:28:03;97745.41;;;0.51;61.11
73633;BME280;61927;50.080;14.418;2024-01-15T09:30:29;97745.09;;;0.40;61.14
73633;BME280;61927;50.080;14.418;2024-01-15T09:32:55;97747.31;;;0.47;61.05
73633;BME280;61927;50.080;14.418;2024-01-15T09:35:22;97744.06;;;0.25;61.33
73633;BME280;61927;50.080;14.418;2024-01-15T09:37:48;97753.38;;;0.48;61.20
73633;BME280;61927;50.080;14.418;2024-01-15T09:40:14;97731.13;;;0.41;60.47
73633;BME280;61927;50.080;14.418;2024-01-15T09:42:41;97753.19;;;0.34;61.14
73633;BME280;61927;50.080;14.418;2024-01-15T09:45:07;97741.41;;;0.08;61.65
73633;BME280;61927;50.080;14.418;2024-01-15T09:47:36;97738.25;;;0.37;61.42
73633;BME280;61927;50.080;14.418;2024-01-15T09:50:02;97725.81;;;0.42;60.80
73633;BME280;61927;50.080;14.418;2024-01-15T09:52:30;97725.19;;;0.37;60.50
73633;BME280;61927;50.080;14.418;2024-01-15T09:54:58;97713.25;;;0.68;59.38
73633;BME280;61927;50.080;14.418;2024-01-15T09:57:24;97717.88;;;0.62;59.79
73633;BME280;61927;50.080;14.418;2024-01-15T09:59:52;97715.38;;;0.42;59.91
73633;BME280;61927;50.080;14.418;2024-01-15T10:02:20;97707.81;;;0.55;60.25
73633;BME280;61927;50.080;14.418;2024-01-15T10:04:47;97721.84;;;0.70;59.49
73633;BME280;61927;50.080;14.418;2024-01-15T10:07:16;97706.81;;;0.57;60.56
73633;BME280;61927;50.080;14.418;2024-01-15T10:09:46;97698.53;;;0.67;60.24
73633;BME280;61927;50.080;14.418;2024-01-15T10:12:15;97697.13;;;0.77;59.04
73633;BME280;61927;50.080;14.418;2024-01-15T10:14:42;97695.69;;;0.54;60.20
73633;BME280;61927;50.080;14.418;2024-01-15T10:17:14;97694.38;;;0.62;59.32
73633;BME280;61927;50.080;14.418;2024-01-15T10:19:45;97698.91;;;0.59;60.19
73633;BME280;61927;50.080;14.418;2024-01-15T10:22:20;97694.28;;;0.47;59.61
73633;BME280;61927;50.080;14.418;2024-01-15T10:24:46;97700.50;;;0.44;59.73
73633;BME280;61927;50.080;14.418;2024-01-15T10:27:17;97684.41;;;0.53;59.55
73633;BME280;61927;50.080;14.418;2024-01-15T10:29:43;97693.84;;;0.73;59.51
73633;BME280;61927;50.080;14.418;2024-01-15T10:32:09;97685.09;;;0.74;59.40
73633;BME280;61927;50.080;14.418;2024-01-15T10:34:38;97676.09;;;0.62;58.74
73633;BME280;61927;50.080;14.418;2024-01-15T10:37:07;97684.47;;;0.86;58.34
73633;BME280;61927;50.080;14.418;2024-01-15T10:39:36;97675.63;;;0.89;58.07
73633;BME280;61927;50.080;14.418;2024-01-15T10:42:07;97675.69;;;0.87;58.16
73633;BME280;61927;50.080;14.418;2024-01-15T10:44:33;97677.75;;;0.98;57.91
73633;BME280;61927;50.080;14.418;2024-01-15T10:47:00;97690.59;;;0.85;57.90
73633;BME280;61927;50.080;14.418;2024-01-15T10:49:26;97689.16;;;0.80;58.38
73633;BME280;61927;50.080;14.418;2024-01-15T10:51:54;97698.56;;;1.00;57.81
73633;BME280;61927;50.080;14.418;2024-01-15T10:54:20;97674.44;;;1.12;57.22
73633;BME280;61927;50.080;14.418;2024-01-15T10:56:51;97684.69;;;1.32;57.13
73633;BME280;61927;50.080;14.418;2024-01-15T10:59:20;97682.22;;;0.96;58.08
73633;BME280;61927;50.080;14.418;2024-01-15T11:01:46;97673.03;;;0.72;58.40
73633;BME280;61927;50.080;14.418;2024-01-15T11:04:12;97689.97;;;0.98;58.05
73633;BME280;61927;50.080;14.418;2024-01-15T11:06:46;97686.53;;;0.97;58.36
73633;BME280;61927;50.080;14.418;2024-01-15T11:09:12;97688.44;;;0.93;58.47
73633;BME280;61927;50.080;14.418;2024-01-15T11:11:40;97679.28;;;1.02;57.41
73633;BME280;61927;50.080;14.418;2024-01-15T11:14:06;97678.34;;;1.20;58.07
73633;BME280;61927;50.080;14.418;2024-01-15T11:16:55;97682.50;;;1.40;57.29
73633;BME280;61927;50.080;14.418;2024-01-15T11:19:21;97676.28;;;1.43;57.14
73633;BME280;61927;50.080;14.418;2024-01-15T11:21:47;97672.78;;;1.26;56.94
73633;BME280;61927;50.080;14.418;2024-01-15T11:24:36;97665.06;;;1.56;57.05
73633;BME280;61927;50.080;14.418;2024-01-15T11:27:03;97671.22;;;1.40;57.26
73633;BME280;61927;50.080;14.418;2024-01-15T11:29:31;97684.94;;;1.27;57.45
73633;BME280;61927;50.080;14.418;2024-01-15T11:32:00;97673.50;;;1.46;57.81
73633;BME280;61927;50.080;14.418;2024-01-15T11:34:58;97684.88;;;1.45;56.91
73633;BME280;61927;50.080;14.418;2024-01-15T11:37:25;97679.66;;;1.12;58.08
73633;BME280;61927;50.080;14.418;2024-01-15T11:40:01;97675.69;;;1.05;58.45
73633;BME280;61927;50.080;14.418;2024-01-15T11:42:29;97673.19;;;1.19;58.32
73633;BME280;61927;50.080;14.418;2024-01-15T11:44:55;97668.53;;;1.41;57.61
73633;BME280;61927;50.080;14.418;2024-01-15T11:50:07;97677.56;;;1.18;58.06
73633;BME280;61927;50.080;14.418;2024-01-15T11:52:38;97667.72;;;1.23;57.82
73633;BME280;61927;50.080;14.418;2024-01-15T11:57:53;97661.94;;;1.34;58.01
73633;BME280;61927;50.080;14.418;2024-01-15T12:00:24;97660.69;;;1.41;57.73
73633;BME280;61927;50.080;14.418;2024-01-15T12:02:58;97657.13;;;1.26;58.41
73633;BME280;61927;50.080;14.418;2024-01-15T12:05:24;97659.13;;;1.21;58.37
73633;BME280;61927;50.080;14.418;2024-01-15T12:07:50;97659.81;;;1.25;58.12
73633;BME280;61927;50.080;14.418;2024-01-15T12:10:18;97655.09;;;1.32;58.78
73633;BME280;61927;50.080;14.418;2024-01-15T12:12:58;97659.22;;;1.20;58.08
73633;BME280;61927;50.080;14.418;2024-01-15T12:15:29;97652.56;;;1.30;57.73
73633;BME280;61927;50.080;14.418;2024-01-15T12:17:56;97656.16;;;1.12;58.52
73633;BME280;61927;50.080;14.418;2024-01-15T12:20:26;97658.19;;;1.22;58.70
73633;BME280;61927;50.080;14.418;2024-01-15T12:22:52;97661.06;;;1.18;58.45
73633;BME280;61927;50.080;14.418;2024-01-15T12:25:18;97657.56;;;1.02;59.09
73633;BME280;61927;50.080;14.418;2024-01-15T12:27:45;97663.81;;;1.15;58.90
73633;BME280;61927;50.080;14.418;2024-01-15T12:30:12;97665.59;;;1.14;58.66
73633;BME280;61927;50.080;14.418;2024-01-15T12:32:42;97665.28;;;1.20;58.84
73633;BME280;61927;50.080;14.418;2024-01-15T12:35:10;97652.22;;;0.87;59.35
73633;BME280;61927;50.080;14.418;2024-01-15T12:37:37;97660.53;;;1.11;59.07
73633;BME280;61927;50.080;14.418;2024-01-15T12:40:05;97652.72;;;0.94;59.53
73633;BME280;61927;50.080;14.418;2024-01-15T12:42:33;97646.88;;;1.06;59.47
73633;BME280;61927;50.080;14.418;2024-01-15T12:45:00;97650.00;;;1.13;59.31
73633;BME280;61927;50.080;14.418;2024-01-15T12:47:26;97661.91;;;1.18;58.82
73633;BME280;61927;50.080;14.418;2024-01-15T12:49:52;97653.56;;;0.94;59.42
73633;BME280;61927;50.080;14.418;2024-01-15T12:52:21;97647.75;;;0.89;59.57
73633;BME280;61927;50.080;14.418;2024-01-15T12:54:51;97651.19;;;0.90;59.11
73633;BME280;61927;50.080;14.418;2024-01-15T12:57:17;97644.44;;;0.86;58.94
73633;BME280;61927;50.080;14.418;2024-01-15T12:59:46;97655.06;;;0.83;58.85